sensor_id;sensor_type;location;lat;lon;timestamp;temperature;humidity
17341;DHT22;8788;49.930;8.660;2023-02-28T00:01:07;2.20;90.90
17341;DHT22;8788;49.930;8.660;2023-02-28T00:03:34;2.20;91.00
17341;DHT22;8788;49.930;8.660;2023-02-28T00:06:02;2.10;91.10
17341;DHT22;8788;49.930;8.660;2023-02-28T00:08:30;2.10;91.20
17341;DHT22;8788;49.930;8.660;2023-02-28T00:11:01;2.10;91.30
17341;DHT22;8788;49.930;8.660;2023-02-28T00:13:29;2.00;91.50
17341;DHT22;8788;49.930;8.660;2023-02-28T00:16:01;2.00;91.60
17341;DHT22;8788;49.930;8.660;2023-02-28T00:18:28;2.00;91.70
17341;DHT22;8788;49.930;8.660;2023-02-28T00:20:56;2.00;91.70
17341;DHT22;8788;49.930;8.660;2023-02-28T00:23:23;2.00;91.80
17341;DHT22;8788;49.930;8.660;2023-02-28T00:25:50;2.00;91.90
17341;DHT22;8788;49.930;8.660;2023-02-28T00:28:17;2.00;92.00
17341;DHT22;8788;49.930;8.660;2023-02-28T00:30:46;2.00;92.10
17341;DHT22;8788;49.930;8.660;2023-02-28T00:33:14;2.00;92.20
17341;DHT22;8788;49.930;8.660;2023-02-28T00:35:41;2.00;92.30
17341;DHT22;8788;49.930;8.660;2023-02-28T00:38:08;2.00;92.30
17341;DHT22;8788;49.930;8.660;2023-02-28T00:40:35;2.10;92.30
17341;DHT22;8788;49.930;8.660;2023-02-28T00:43:03;2.10;92.30
17341;DHT22;8788;49.930;8.660;2023-02-28T00:45:30;2.00;92.40
17341;DHT22;8788;49.930;8.660;2023-02-28T00:47:59;2.10;92.40
17341;DHT22;8788;49.930;8.660;2023-02-28T00:50:26;2.10;92.50
17341;DHT22;8788;49.930;8.660;2023-02-28T00:52:53;2.00;92.50
17341;DHT22;8788;49.930;8.660;2023-02-28T00:55:20;2.00;92.60
17341;DHT22;8788;49.930;8.660;2023-02-28T00:57:47;2.00;92.70
17341;DHT22;8788;49.930;8.660;2023-02-28T01:00:15;1.90;92.90
17341;DHT22;8788;49.930;8.660;2023-02-28T01:02:42;1.90;93.00
17341;DHT22;8788;49.930;8.660;2023-02-28T01:05:10;1.90;93.10
17341;DHT22;8788;49.930;8.660;2023-02-28T01:07:38;1.80;93.20
17341;DHT22;8788;49.930;8.660;2023-02-28T01:10:05;1.80;93.30
17341;DHT22;8788;49.930;8.660;2023-02-28T01:12:33;1.90;93.30
17341;DHT22;8788;49.930;8.660;2023-02-28T01:15:00;1.90;93.40
17341;DHT22;8788;49.930;8.660;2023-02-28T01:17:27;1.90;93.40
17341;DHT22;8788;49.930;8.660;2023-02-28T01:19:54;1.90;93.50
17341;DHT22;8788;49.930;8.660;2023-02-28T01:22:25;1.80;93.60
17341;DHT22;8788;49.930;8.660;2023-02-28T01:24:53;1.80;93.80
17341;DHT22;8788;49.930;8.660;2023-02-28T01:27:20;1.90;93.90
17341;DHT22;8788;49.930;8.660;2023-02-28T01:29:47;1.80;94.00
17341;DHT22;8788;49.930;8.660;2023-02-28T01:32:15;1.80;94.50
17341;DHT22;8788;49.930;8.660;2023-02-28T01:34:42;1.70;94.30
17341;DHT22;8788;49.930;8.660;2023-02-28T01:37:09;1.70;94.50
17341;DHT22;8788;49.930;8.660;2023-02-28T01:39:38;1.80;94.60
17341;DHT22;8788;49.930;8.660;2023-02-28T01:42:05;1.70;94.70
17341;DHT22;8788;49.930;8.660;2023-02-28T01:47:41;1.70;94.90
17341;DHT22;8788;49.930;8.660;2023-02-28T01:50:12;1.70;95.00
17341;DHT22;8788;49.930;8.660;2023-02-28T01:52:41;1.70;95.10
17341;DHT22;8788;49.930;8.660;2023-02-28T01:55:11;1.70;95.20
17341;DHT22;8788;49.930;8.660;2023-02-28T01:57:41;1.70;95.30
17341;DHT22;8788;49.930;8.660;2023-02-28T02:00:12;1.70;95.40
17341;DHT22;8788;49.930;8.660;2023-02-28T02:02:48;1.60;95.50
17341;DHT22;8788;49.930;8.660;2023-02-28T02:05:18;1.60;95.60
17341;DHT22;8788;49.930;8.660;2023-02-28T02:07:48;1.60;95.80
17341;DHT22;8788;49.930;8.660;2023-02-28T02:10:20;1.70;95.90
17341;DHT22;8788;49.930;8.660;2023-02-28T02:13:08;1.60;95.90
17341;DHT22;8788;49.930;8.660;2023-02-28T02:15:46;1.60;96.10
17341;DHT22;8788;49.930;8.660;2023-02-28T02:18:22;1.50;96.30
17341;DHT22;8788;49.930;8.660;2023-02-28T02:21:13;1.50;96.50
17341;DHT22;8788;49.930;8.660;2023-02-28T02:24:02;1.50;96.60
17341;DHT22;8788;49.930;8.660;2023-02-28T02:26:47;1.50;96.80
17341;DHT22;8788;49.930;8.660;2023-02-28T02:29:42;1.50;96.80
17341;DHT22;8788;49.930;8.660;2023-02-28T02:32:30;1.50;97.00
17341;DHT22;8788;49.930;8.660;2023-02-28T02:35:10;1.50;97.10
17341;DHT22;8788;49.930;8.660;2023-02-28T02:37:43;1.50;97.20
17341;DHT22;8788;49.930;8.660;2023-02-28T02:40:18;1.50;97.30
17341;DHT22;8788;49.930;8.660;2023-02-28T02:42:51;1.50;97.50
17341;DHT22;8788;49.930;8.660;2023-02-28T02:45:25;1.50;97.60
17341;DHT22;8788;49.930;8.660;2023-02-28T02:47:53;1.50;97.70
17341;DHT22;8788;49.930;8.660;2023-02-28T02:50:27;1.50;97.80
17341;DHT22;8788;49.930;8.660;2023-02-28T02:53:05;1.50;98.00
17341;DHT22;8788;49.930;8.660;2023-02-28T02:55:41;1.50;98.10
17341;DHT22;8788;49.930;8.660;2023-02-28T02:58:13;1.40;98.30
17341;DHT22;8788;49.930;8.660;2023-02-28T03:00:45;1.40;98.60
17341;DHT22;8788;49.930;8.660;2023-02-28T03:03:14;1.40;98.80
17341;DHT22;8788;49.930;8.660;2023-02-28T03:05:47;1.40;98.80
17341;DHT22;8788;49.930;8.660;2023-02-28T03:08:15;1.50;98.90
17341;DHT22;8788;49.930;8.660;2023-02-28T03:10:43;1.40;98.90
17341;DHT22;8788;49.930;8.660;2023-02-28T03:13:47;1.40;99.10
17341;DHT22;8788;49.930;8.660;2023-02-28T03:16:34;1.40;99.20
17341;DHT22;8788;49.930;8.660;2023-02-28T03:19:17;1.50;99.30
17341;DHT22;8788;49.930;8.660;2023-02-28T03:21:58;1.50;99.30
17341;DHT22;8788;49.930;8.660;2023-02-28T03:24:34;1.50;99.30
17341;DHT22;8788;49.930;8.660;2023-02-28T03:27:08;1.50;99.40
17341;DHT22;8788;49.930;8.660;2023-02-28T03:29:39;1.40;99.40
17341;DHT22;8788;49.930;8.660;2023-02-28T03:32:23;1.40;99.50
17341;DHT22;8788;49.930;8.660;2023-02-28T03:34:58;1.40;99.70
17341;DHT22;8788;49.930;8.660;2023-02-28T03:37:29;1.40;99.80
17341;DHT22;8788;49.930;8.660;2023-02-28T03:40:03;1.40;99.90
17341;DHT22;8788;49.930;8.660;2023-02-28T03:42:35;1.40;99.80
17341;DHT22;8788;49.930;8.660;2023-02-28T03:45:08;1.40;99.80
17341;DHT22;8788;49.930;8.660;2023-02-28T03:47:39;1.30;99.90
17341;DHT22;8788;49.930;8.660;2023-02-28T03:50:14;1.20;99.90
17341;DHT22;8788;49.930;8.660;2023-02-28T03:52:48;1.10;99.90
17341;DHT22;8788;49.930;8.660;2023-02-28T03:55:17;1.20;99.90
17341;DHT22;8788;49.930;8.660;2023-02-28T03:57:53;1.20;99.90
17341;DHT22;8788;49.930;8.660;2023-02-28T04:00:27;1.10;99.90
17341;DHT22;8788;49.930;8.660;2023-02-28T04:02:57;1.20;99.90
17341;DHT22;8788;49.930;8.660;2023-02-28T04:05:24;1.10;99.90
17341;DHT22;8788;49.930;8.660;2023-02-28T04:07:52;1.10;99.90
17341;DHT22;8788;49.930;8.660;2023-02-28T04:10:20;1.10;99.90
17341;DHT22;8788;49.930;8.660;2023-02-28T04:12:47;1.10;99.90
17341;DHT22;8788;49.930;8.660;2023-02-28T04:15:14;1.10;99.90
17341;DHT22;8788;49.930;8.660;2023-02-28T04:17:41;1.20;99.90
17341;DHT22;8788;49.930;8.660;2023-02-28T04:20:09;1.20;99.90
17341;DHT22;8788;49.930;8.660;2023-02-28T04:22:37;1.20;99.90
17341;DHT22;8788;49.930;8.660;2023-02-28T04:25:07;1.10;99.90
17341;DHT22;8788;49.930;8.660;2023-02-28T04:27:34;1.20;99.90
17341;DHT22;8788;49.930;8.660;2023-02-28T04:30:01;1.20;99.90
17341;DHT22;8788;49.930;8.660;2023-02-28T04:32:28;1.10;99.90
17341;DHT22;8788;49.930;8.660;2023-02-28T04:34:55;1.10;99.90
17341;DHT22;8788;49.930;8.660;2023-02-28T04:37:22;1.20;99.90
17341;DHT22;8788;49.930;8.660;2023-02-28T04:39:54;1.20;99.90
17341;DHT22;8788;49.930;8.660;2023-02-28T04:42:22;1.20;99.90
17341;DHT22;8788;49.930;8.660;2023-02-28T04:44:49;1.20;99.90
17341;DHT22;8788;49.930;8.660;2023-02-28T04:47:17;1.20;99.90
17341;DHT22;8788;49.930;8.660;2023-02-28T04:49:44;1.10;99.90
17341;DHT22;8788;49.930;8.660;2023-02-28T04:52:11;1.10;99.90
17341;DHT22;8788;49.930;8.660;2023-02-28T04:54:38;1.10;99.90
17341;DHT22;8788;49.930;8.660;2023-02-28T04:57:06;1.10;99.90
17341;DHT22;8788;49.930;8.660;2023-02-28T04:59:34;1.20;99.90
17341;DHT22;8788;49.930;8.660;2023-02-28T05:02:01;1.20;99.90
17341;DHT22;8788;49.930;8.660;2023-02-28T05:04:32;1.20;99.90
17341;DHT22;8788;49.930;8.660;2023-02-28T05:07:00;1.20;99.90
17341;DHT22;8788;49.930;8.660;2023-02-28T05:09:27;1.20;99.90
17341;DHT22;8788;49.930;8.660;2023-02-28T05:11:55;1.10;99.90
17341;DHT22;8788;49.930;8.660;2023-02-28T05:14:22;1.10;99.90
17341;DHT22;8788;49.930;8.660;2023-02-28T05:16:50;1.00;99.90
17341;DHT22;8788;49.930;8.660;2023-02-28T05:19:17;1.00;99.90
17341;DHT22;8788;49.930;8.660;2023-02-28T05:21:50;1.00;99.90
17341;DHT22;8788;49.930;8.660;2023-02-28T05:24:18;1.00;99.90
17341;DHT22;8788;49.930;8.660;2023-02-28T05:26:49;1.00;99.90
17341;DHT22;8788;49.930;8.660;2023-02-28T05:29:17;0.90;99.90
17341;DHT22;8788;49.930;8.660;2023-02-28T05:31:44;0.90;99.90
17341;DHT22;8788;49.930;8.660;2023-02-28T05:34:12;0.90;99.90
17341;DHT22;8788;49.930;8.660;2023-02-28T05:36:41;0.90;99.90
17341;DHT22;8788;49.930;8.660;2023-02-28T05:39:09;0.90;99.90
17341;DHT22;8788;49.930;8.660;2023-02-28T05:41:40;0.90;99.90
17341;DHT22;8788;49.930;8.660;2023-02-28T05:44:07;0.90;99.90
17341;DHT22;8788;49.930;8.660;2023-02-28T05:46:34;0.90;99.90
17341;DHT22;8788;49.930;8.660;2023-02-28T05:49:01;0.90;99.90
17341;DHT22;8788;49.930;8.660;2023-02-28T05:51:29;0.90;99.90
17341;DHT22;8788;49.930;8.660;2023-02-28T05:53:59;0.90;99.90
17341;DHT22;8788;49.930;8.660;2023-02-28T05:56:27;0.80;99.90
17341;DHT22;8788;49.930;8.660;2023-02-28T05:58:54;0.80;99.90
17341;DHT22;8788;49.930;8.660;2023-02-28T06:01:25;0.70;99.90
17341;DHT22;8788;49.930;8.660;2023-02-28T06:03:53;0.80;99.90
17341;DHT22;8788;49.930;8.660;2023-02-28T06:06:20;0.80;99.90
17341;DHT22;8788;49.930;8.660;2023-02-28T06:08:48;0.90;99.90
17341;DHT22;8788;49.930;8.660;2023-02-28T06:11:15;0.90;99.90
17341;DHT22;8788;49.930;8.660;2023-02-28T06:13:43;0.90;99.90
17341;DHT22;8788;49.930;8.660;2023-02-28T06:16:11;1.00;99.90
17341;DHT22;8788;49.930;8.660;2023-02-28T06:18:38;1.00;99.90
17341;DHT22;8788;49.930;8.660;2023-02-28T06:21:05;1.00;99.90
17341;DHT22;8788;49.930;8.660;2023-02-28T06:23:34;0.90;99.90
17341;DHT22;8788;49.930;8.660;2023-02-28T06:26:03;0.90;99.90
17341;DHT22;8788;49.930;8.660;2023-02-28T06:28:30;0.90;99.90
17341;DHT22;8788;49.930;8.660;2023-02-28T06:30:57;0.80;99.90
17341;DHT22;8788;49.930;8.660;2023-02-28T06:33:24;0.80;99.90
17341;DHT22;8788;49.930;8.660;2023-02-28T06:35:52;0.90;99.90
17341;DHT22;8788;49.930;8.660;2023-02-28T06:38:19;0.80;99.90
17341;DHT22;8788;49.930;8.660;2023-02-28T06:40:53;0.90;99.90
17341;DHT22;8788;49.930;8.660;2023-02-28T06:43:22;1.00;99.90
17341;DHT22;8788;49.930;8.660;2023-02-28T06:45:50;1.10;99.90
17341;DHT22;8788;49.930;8.660;2023-02-28T06:48:20;1.40;99.90
17341;DHT22;8788;49.930;8.660;2023-02-28T06:50:47;1.70;99.90
17341;DHT22;8788;49.930;8.660;2023-02-28T06:53:14;2.00;99.90
17341;DHT22;8788;49.930;8.660;2023-02-28T06:55:41;2.00;99.90
17341;DHT22;8788;49.930;8.660;2023-02-28T06:58:09;1.90;99.90
17341;DHT22;8788;49.930;8.660;2023-02-28T07:00:45;1.80;99.90
17341;DHT22;8788;49.930;8.660;2023-02-28T07:03:12;1.80;99.90
17341;DHT22;8788;49.930;8.660;2023-02-28T07:05:41;1.80;99.90
17341;DHT22;8788;49.930;8.660;2023-02-28T07:08:08;1.70;99.90
17341;DHT22;8788;49.930;8.660;2023-02-28T07:10:37;1.80;99.90
17341;DHT22;8788;49.930;8.660;2023-02-28T07:13:04;1.80;99.90
17341;DHT22;8788;49.930;8.660;2023-02-28T07:15:32;1.80;99.90
17341;DHT22;8788;49.930;8.660;2023-02-28T07:18:00;1.80;99.90
17341;DHT22;8788;49.930;8.660;2023-02-28T07:20:27;1.70;99.90
17341;DHT22;8788;49.930;8.660;2023-02-28T07:22:54;1.80;99.90
17341;DHT22;8788;49.930;8.660;2023-02-28T07:25:22;1.80;99.90
17341;DHT22;8788;49.930;8.660;2023-02-28T07:27:49;1.80;99.90
17341;DHT22;8788;49.930;8.660;2023-02-28T07:30:17;1.70;99.90
17341;DHT22;8788;49.930;8.660;2023-02-28T07:32:44;1.80;99.90
17341;DHT22;8788;49.930;8.660;2023-02-28T07:35:13;1.80;99.90
17341;DHT22;8788;49.930;8.660;2023-02-28T07:37:41;1.80;99.90
17341;DHT22;8788;49.930;8.660;2023-02-28T07:40:10;1.80;99.90
17341;DHT22;8788;49.930;8.660;2023-02-28T07:42:38;1.80;99.90
17341;DHT22;8788;49.930;8.660;2023-02-28T07:45:08;1.90;99.90
17341;DHT22;8788;49.930;8.660;2023-02-28T07:47:37;1.90;99.90
17341;DHT22;8788;49.930;8.660;2023-02-28T07:50:05;2.00;99.90
17341;DHT22;8788;49.930;8.660;2023-02-28T07:52:33;2.20;99.90
17341;DHT22;8788;49.930;8.660;2023-02-28T07:55:00;2.20;99.90
17341;DHT22;8788;49.930;8.660;2023-02-28T07:57:28;2.20;99.90
17341;DHT22;8788;49.930;8.660;2023-02-28T07:59:55;2.30;99.90
17341;DHT22;8788;49.930;8.660;2023-02-28T08:02:22;2.30;99.90
17341;DHT22;8788;49.930;8.660;2023-02-28T08:04:49;2.40;99.90
17341;DHT22;8788;49.930;8.660;2023-02-28T08:07:17;2.50;99.90
17341;DHT22;8788;49.930;8.660;2023-02-28T08:09:45;2.60;99.90
17341;DHT22;8788;49.930;8.660;2023-02-28T08:12:12;2.60;99.90
17341;DHT22;8788;49.930;8.660;2023-02-28T08:14:40;2.70;99.90
17341;DHT22;8788;49.930;8.660;2023-02-28T08:17:07;2.80;99.90
17341;DHT22;8788;49.930;8.660;2023-02-28T08:19:34;2.90;99.90
17341;DHT22;8788;49.930;8.660;2023-02-28T08:22:01;3.00;99.90
17341;DHT22;8788;49.930;8.660;2023-02-28T08:24:28;3.00;99.90
17341;DHT22;8788;49.930;8.660;2023-02-28T08:26:57;3.10;99.90
17341;DHT22;8788;49.930;8.660;2023-02-28T08:29:24;3.20;99.90
17341;DHT22;8788;49.930;8.660;2023-02-28T08:31:51;3.30;99.90
17341;DHT22;8788;49.930;8.660;2023-02-28T08:34:18;3.30;99.90
17341;DHT22;8788;49.930;8.660;2023-02-28T08:36:45;3.40;99.90
17341;DHT22;8788;49.930;8.660;2023-02-28T08:39:13;3.50;99.90
17341;DHT22;8788;49.930;8.660;2023-02-28T08:41:41;3.70;99.90
17341;DHT22;8788;49.930;8.660;2023-02-28T08:44:11;3.80;99.90
17341;DHT22;8788;49.930;8.660;2023-02-28T08:46:38;3.90;99.80
17341;DHT22;8788;49.930;8.660;2023-02-28T08:49:05;3.90;99.20
17341;DHT22;8788;49.930;8.660;2023-02-28T08:51:32;3.80;99.10
17341;DHT22;8788;49.930;8.660;2023-02-28T08:54:00;3.70;99.00
17341;DHT22;8788;49.930;8.660;2023-02-28T08:56:28;3.70;99.20
17341;DHT22;8788;49.930;8.660;2023-02-28T08:58:56;3.70;99.00
17341;DHT22;8788;49.930;8.660;2023-02-28T09:01:27;3.80;99.20
17341;DHT22;8788;49.930;8.660;2023-02-28T09:03:55;3.90;98.90
17341;DHT22;8788;49.930;8.660;2023-02-28T09:06:24;3.90;98.80
17341;DHT22;8788;49.930;8.660;2023-02-28T09:08:51;3.90;98.50
17341;DHT22;8788;49.930;8.660;2023-02-28T09:11:19;3.90;98.60
17341;DHT22;8788;49.930;8.660;2023-02-28T09:13:46;4.10;98.70
17341;DHT22;8788;49.930;8.660;2023-02-28T09:16:15;4.20;98.30
17341;DHT22;8788;49.930;8.660;2023-02-28T09:18:44;4.20;97.80
17341;DHT22;8788;49.930;8.660;2023-02-28T09:21:12;4.30;98.10
17341;DHT22;8788;49.930;8.660;2023-02-28T09:23:40;4.40;98.10
17341;DHT22;8788;49.930;8.660;2023-02-28T09:29:54;4.50;97.30
17341;DHT22;8788;49.930;8.660;2023-02-28T09:32:21;4.60;97.20
17341;DHT22;8788;49.930;8.660;2023-02-28T09:34:49;4.70;96.90
17341;DHT22;8788;49.930;8.660;2023-02-28T09:37:17;4.80;96.70
17341;DHT22;8788;49.930;8.660;2023-02-28T09:39:44;4.90;97.00
17341;DHT22;8788;49.930;8.660;2023-02-28T09:42:18;5.10;96.80
17341;DHT22;8788;49.930;8.660;2023-02-28T09:44:48;5.10;95.50
17341;DHT22;8788;49.930;8.660;2023-02-28T09:47:24;5.10;94.70
17341;DHT22;8788;49.930;8.660;2023-02-28T09:49:56;5.10;94.40
17341;DHT22;8788;49.930;8.660;2023-02-28T09:52:29;5.20;94.60
17341;DHT22;8788;49.930;8.660;2023-02-28T09:55:18;5.20;93.90
17341;DHT22;8788;49.930;8.660;2023-02-28T09:57:46;5.10;93.90
17341;DHT22;8788;49.930;8.660;2023-02-28T10:00:16;5.30;93.70
17341;DHT22;8788;49.930;8.660;2023-02-28T10:02:59;5.50;93.40
17341;DHT22;8788;49.930;8.660;2023-02-28T10:05:34;5.60;93.50
17341;DHT22;8788;49.930;8.660;2023-02-28T10:08:08;5.70;93.40
17341;DHT22;8788;49.930;8.660;2023-02-28T10:10:39;5.80;92.50
17341;DHT22;8788;49.930;8.660;2023-02-28T10:13:15;5.80;91.40
17341;DHT22;8788;49.930;8.660;2023-02-28T10:15:45;5.90;91.40
17341;DHT22;8788;49.930;8.660;2023-02-28T10:18:18;6.00;91.40
17341;DHT22;8788;49.930;8.660;2023-02-28T10:20:49;6.00;90.90
17341;DHT22;8788;49.930;8.660;2023-02-28T10:23:21;6.10;91.20
17341;DHT22;8788;49.930;8.660;2023-02-28T10:25:54;6.10;91.30
17341;DHT22;8788;49.930;8.660;2023-02-28T10:28:24;6.00;90.60
17341;DHT22;8788;49.930;8.660;2023-02-28T10:30:53;5.90;90.30
17341;DHT22;8788;49.930;8.660;2023-02-28T10:33:28;5.80;90.40
17341;DHT22;8788;49.930;8.660;2023-02-28T10:35:58;5.80;90.60
17341;DHT22;8788;49.930;8.660;2023-02-28T10:38:29;5.90;90.60
17341;DHT22;8788;49.930;8.660;2023-02-28T10:41:06;5.90;90.10
17341;DHT22;8788;49.930;8.660;2023-02-28T10:43:35;6.10;90.40
17341;DHT22;8788;49.930;8.660;2023-02-28T10:46:04;6.30;90.30
17341;DHT22;8788;49.930;8.660;2023-02-28T10:48:38;6.30;90.00
17341;DHT22;8788;49.930;8.660;2023-02-28T10:51:09;6.40;89.60
17341;DHT22;8788;49.930;8.660;2023-02-28T10:53:48;6.40;90.00
17341;DHT22;8788;49.930;8.660;2023-02-28T10:56:18;6.60;89.90
17341;DHT22;8788;49.930;8.660;2023-02-28T10:58:55;6.60;89.40
17341;DHT22;8788;49.930;8.660;2023-02-28T11:01:25;6.70;89.00
17341;DHT22;8788;49.930;8.660;2023-02-28T11:03:52;6.80;88.90
17341;DHT22;8788;49.930;8.660;2023-02-28T11:06:22;6.90;88.80
17341;DHT22;8788;49.930;8.660;2023-02-28T11:08:52;6.90;88.60
17341;DHT22;8788;49.930;8.660;2023-02-28T11:11:21;7.00;89.30
17341;DHT22;8788;49.930;8.660;2023-02-28T11:13:52;7.20;89.10
17341;DHT22;8788;49.930;8.660;2023-02-28T11:16:20;7.30;89.30
17341;DHT22;8788;49.930;8.660;2023-02-28T11:18:50;7.60;89.80
17341;DHT22;8788;49.930;8.660;2023-02-28T11:21:26;7.70;88.80
17341;DHT22;8788;49.930;8.660;2023-02-28T11:23:59;7.90;86.60
17341;DHT22;8788;49.930;8.660;2023-02-28T11:26:38;7.90;85.40
17341;DHT22;8788;49.930;8.660;2023-02-28T11:29:19;7.90;85.40
17341;DHT22;8788;49.930;8.660;2023-02-28T11:32:13;8.00;84.70
17341;DHT22;8788;49.930;8.660;2023-02-28T11:34:43;8.20;85.00
17341;DHT22;8788;49.930;8.660;2023-02-28T11:37:14;8.20;81.70
17341;DHT22;8788;49.930;8.660;2023-02-28T11:39:42;8.20;81.80
17341;DHT22;8788;49.930;8.660;2023-02-28T11:45:15;8.30;81.30
17341;DHT22;8788;49.930;8.660;2023-02-28T11:47:48;8.40;80.60
17341;DHT22;8788;49.930;8.660;2023-02-28T11:50:26;8.60;80.20
17341;DHT22;8788;49.930;8.660;2023-02-28T11:53:01;8.70;78.30
17341;DHT22;8788;49.930;8.660;2023-02-28T11:55:32;8.90;78.20
17341;DHT22;8788;49.930;8.660;2023-02-28T11:58:17;9.10;78.90
17341;DHT22;8788;49.930;8.660;2023-02-28T12:01:02;9.40;78.50
17341;DHT22;8788;49.930;8.660;2023-02-28T12:03:37;9.30;75.60
17341;DHT22;8788;49.930;8.660;2023-02-28T12:06:16;9.30;76.40
17341;DHT22;8788;49.930;8.660;2023-02-28T12:08:57;9.30;76.60
17341;DHT22;8788;49.930;8.660;2023-02-28T12:11:39;9.20;74.70
17341;DHT22;8788;49.930;8.660;2023-02-28T12:17:17;9.10;75.50
17341;DHT22;8788;49.930;8.660;2023-02-28T12:19:54;9.10;76.60
17341;DHT22;8788;49.930;8.660;2023-02-28T12:22:31;9.20;75.70
17341;DHT22;8788;49.930;8.660;2023-02-28T12:28:01;9.10;75.40
17341;DHT22;8788;49.930;8.660;2023-02-28T12:30:30;9.10;75.70
17341;DHT22;8788;49.930;8.660;2023-02-28T12:33:03;9.10;76.20
17341;DHT22;8788;49.930;8.660;2023-02-28T12:35:33;9.00;75.30
17341;DHT22;8788;49.930;8.660;2023-02-28T12:38:05;8.80;75.80
17341;DHT22;8788;49.930;8.660;2023-02-28T12:40:42;8.80;76.70
17341;DHT22;8788;49.930;8.660;2023-02-28T12:43:15;8.80;76.30
17341;DHT22;8788;49.930;8.660;2023-02-28T12:45:46;8.70;75.10
17341;DHT22;8788;49.930;8.660;2023-02-28T12:48:20;8.70;75.80
17341;DHT22;8788;49.930;8.660;2023-02-28T12:50:48;8.70;75.30
17341;DHT22;8788;49.930;8.660;2023-02-28T12:53:22;8.70;76.20
17341;DHT22;8788;49.930;8.660;2023-02-28T12:55:59;8.80;75.80
17341;DHT22;8788;49.930;8.660;2023-02-28T12:58:35;8.90;76.30
17341;DHT22;8788;49.930;8.660;2023-02-28T13:07:21;8.90;74.80
17341;DHT22;8788;49.930;8.660;2023-02-28T13:09:58;8.90;75.50
17341;DHT22;8788;49.930;8.660;2023-02-28T13:12:26;9.00;75.70
17341;DHT22;8788;49.930;8.660;2023-02-28T13:15:04;9.20;76.60
17341;DHT22;8788;49.930;8.660;2023-02-28T13:17:32;9.20;75.60
17341;DHT22;8788;49.930;8.660;2023-02-28T13:20:00;9.20;75.70
17341;DHT22;8788;49.930;8.660;2023-02-28T13:22:39;9.30;75.70
17341;DHT22;8788;49.930;8.660;2023-02-28T13:28:10;9.10;74.10
17341;DHT22;8788;49.930;8.660;2023-02-28T13:31:02;9.10;74.90
17341;DHT22;8788;49.930;8.660;2023-02-28T13:33:30;9.10;74.20
17341;DHT22;8788;49.930;8.660;2023-02-28T13:36:07;9.00;73.80
17341;DHT22;8788;49.930;8.660;2023-02-28T13:38:40;9.10;74.80
17341;DHT22;8788;49.930;8.660;2023-02-28T13:41:43;9.20;74.70
17341;DHT22;8788;49.930;8.660;2023-02-28T13:44:11;9.20;74.00
17341;DHT22;8788;49.930;8.660;2023-02-28T13:49:45;9.50;74.70
17341;DHT22;8788;49.930;8.660;2023-02-28T13:52:16;9.70;74.20
17341;DHT22;8788;49.930;8.660;2023-02-28T13:55:24;9.80;74.60
17341;DHT22;8788;49.930;8.660;2023-02-28T14:01:22;9.90;73.50
17341;DHT22;8788;49.930;8.660;2023-02-28T14:04:05;9.90;73.50
17341;DHT22;8788;49.930;8.660;2023-02-28T14:06:38;9.90;73.90
17341;DHT22;8788;49.930;8.660;2023-02-28T14:09:21;10.00;73.40
17341;DHT22;8788;49.930;8.660;2023-02-28T14:11:50;9.90;73.20
17341;DHT22;8788;49.930;8.660;2023-02-28T14:14:54;10.00;72.50
17341;DHT22;8788;49.930;8.660;2023-02-28T14:17:23;10.00;72.50
17341;DHT22;8788;49.930;8.660;2023-02-28T14:19:51;10.10;72.50
17341;DHT22;8788;49.930;8.660;2023-02-28T14:22:39;10.30;72.90
17341;DHT22;8788;49.930;8.660;2023-02-28T14:25:15;10.40;71.80
17341;DHT22;8788;49.930;8.660;2023-02-28T14:27:48;10.40;72.00
17341;DHT22;8788;49.930;8.660;2023-02-28T14:30:56;10.40;71.90
17341;DHT22;8788;49.930;8.660;2023-02-28T14:33:31;10.20;71.10
17341;DHT22;8788;49.930;8.660;2023-02-28T14:36:10;10.10;71.50
17341;DHT22;8788;49.930;8.660;2023-02-28T14:38:44;10.00;71.60
17341;DHT22;8788;49.930;8.660;2023-02-28T14:41:17;10.10;71.70
17341;DHT22;8788;49.930;8.660;2023-02-28T14:43:54;10.10;71.30
17341;DHT22;8788;49.930;8.660;2023-02-28T14:46:23;10.00;70.80
17341;DHT22;8788;49.930;8.660;2023-02-28T14:48:53;10.00;71.40
17341;DHT22;8788;49.930;8.660;2023-02-28T14:51:21;10.30;72.20
17341;DHT22;8788;49.930;8.660;2023-02-28T14:53:57;10.60;72.50
17341;DHT22;8788;49.930;8.660;2023-02-28T14:56:29;10.80;72.50
17341;DHT22;8788;49.930;8.660;2023-02-28T14:58:57;11.40;72.50
17341;DHT22;8788;49.930;8.660;2023-02-28T15:01:25;12.90;70.50
17341;DHT22;8788;49.930;8.660;2023-02-28T15:04:01;14.50;66.30
17341;DHT22;8788;49.930;8.660;2023-02-28T15:06:29;16.10;61.80
17341;DHT22;8788;49.930;8.660;2023-02-28T15:09:15;17.20;58.70
17341;DHT22;8788;49.930;8.660;2023-02-28T15:11:46;18.50;56.40
17341;DHT22;8788;49.930;8.660;2023-02-28T15:14:17;19.00;53.90
17341;DHT22;8788;49.930;8.660;2023-02-28T15:16:49;19.60;53.80
17341;DHT22;8788;49.930;8.660;2023-02-28T15:19:21;20.30;52.10
17341;DHT22;8788;49.930;8.660;2023-02-28T15:21:52;20.70;51.80
17341;DHT22;8788;49.930;8.660;2023-02-28T15:24:28;20.80;51.50
17341;DHT22;8788;49.930;8.660;2023-02-28T15:26:59;20.80;51.10
17341;DHT22;8788;49.930;8.660;2023-02-28T15:29:32;20.50;50.60
17341;DHT22;8788;49.930;8.660;2023-02-28T15:32:03;20.50;50.20
17341;DHT22;8788;49.930;8.660;2023-02-28T15:34:35;20.60;49.20
17341;DHT22;8788;49.930;8.660;2023-02-28T15:37:23;20.80;49.60
17341;DHT22;8788;49.930;8.660;2023-02-28T15:39:53;21.30;49.20
17341;DHT22;8788;49.930;8.660;2023-02-28T15:42:23;21.20;48.10
17341;DHT22;8788;49.930;8.660;2023-02-28T15:44:52;20.10;47.80
17341;DHT22;8788;49.930;8.660;2023-02-28T15:47:21;17.60;49.10
17341;DHT22;8788;49.930;8.660;2023-02-28T15:49:50;15.40;50.80
17341;DHT22;8788;49.930;8.660;2023-02-28T15:52:20;13.60;52.80
17341;DHT22;8788;49.930;8.660;2023-02-28T15:54:48;12.90;54.90
17341;DHT22;8788;49.930;8.660;2023-02-28T15:57:20;13.80;56.20
17341;DHT22;8788;49.930;8.660;2023-02-28T15:59:51;15.20;55.20
17341;DHT22;8788;49.930;8.660;2023-02-28T16:02:21;16.10;55.30
17341;DHT22;8788;49.930;8.660;2023-02-28T16:04:56;17.00;53.00
17341;DHT22;8788;49.930;8.660;2023-02-28T16:07:23;18.20;52.60
17341;DHT22;8788;49.930;8.660;2023-02-28T16:09:51;19.00;51.30
17341;DHT22;8788;49.930;8.660;2023-02-28T16:12:20;18.50;50.40
17341;DHT22;8788;49.930;8.660;2023-02-28T16:14:52;18.00;50.60
17341;DHT22;8788;49.930;8.660;2023-02-28T16:17:21;17.50;50.90
17341;DHT22;8788;49.930;8.660;2023-02-28T16:19:49;16.90;51.60
17341;DHT22;8788;49.930;8.660;2023-02-28T16:22:16;16.60;52.10
17341;DHT22;8788;49.930;8.660;2023-02-28T16:24:43;16.00;52.60
17341;DHT22;8788;49.930;8.660;2023-02-28T16:27:16;15.20;53.30
17341;DHT22;8788;49.930;8.660;2023-02-28T16:29:45;14.80;53.80
17341;DHT22;8788;49.930;8.660;2023-02-28T16:32:14;13.90;54.00
17341;DHT22;8788;49.930;8.660;2023-02-28T16:34:43;12.80;55.00
17341;DHT22;8788;49.930;8.660;2023-02-28T16:37:12;12.00;55.70
17341;DHT22;8788;49.930;8.660;2023-02-28T16:39:40;11.40;56.50
17341;DHT22;8788;49.930;8.660;2023-02-28T16:42:13;10.90;57.10
17341;DHT22;8788;49.930;8.660;2023-02-28T16:44:41;10.50;57.60
17341;DHT22;8788;49.930;8.660;2023-02-28T16:47:11;10.30;58.10
17341;DHT22;8788;49.930;8.660;2023-02-28T16:49:38;10.10;58.30
17341;DHT22;8788;49.930;8.660;2023-02-28T16:52:08;9.70;58.40
17341;DHT22;8788;49.930;8.660;2023-02-28T16:54:36;9.20;58.60
17341;DHT22;8788;49.930;8.660;2023-02-28T16:57:03;8.70;59.20